sensor_id;sensor_type;location;lat;lon;timestamp;temperature;humidity
69082;DHT22;56184;51.986;5.760;2022-07-17T00:00:42;13.80;74.30
69082;DHT22;56184;51.986;5.760;2022-07-17T00:03:13;13.80;72.70
69082;DHT22;56184;51.986;5.760;2022-07-17T00:05:39;13.70;75.00
69082;DHT22;56184;51.986;5.760;2022-07-17T00:08:05;13.70;74.90
69082;DHT22;56184;51.986;5.760;2022-07-17T00:10:35;13.60;77.00
69082;DHT22;56184;51.986;5.760;2022-07-17T00:13:01;13.50;75.80
69082;DHT22;56184;51.986;5.760;2022-07-17T00:15:27;13.40;76.40
69082;DHT22;56184;51.986;5.760;2022-07-17T00:17:53;13.30;78.90
69082;DHT22;56184;51.986;5.760;2022-07-17T00:20:19;13.30;75.20
69082;DHT22;56184;51.986;5.760;2022-07-17T00:22:46;13.30;78.00
69082;DHT22;56184;51.986;5.760;2022-07-17T00:25:12;13.30;76.00
69082;DHT22;56184;51.986;5.760;2022-07-17T00:27:38;13.20;75.60
69082;DHT22;56184;51.986;5.760;2022-07-17T00:30:05;13.20;76.90
69082;DHT22;56184;51.986;5.760;2022-07-17T00:32:31;13.20;77.50
69082;DHT22;56184;51.986;5.760;2022-07-17T00:34:57;13.10;78.10
69082;DHT22;56184;51.986;5.760;2022-07-17T00:37:22;13.00;78.80
69082;DHT22;56184;51.986;5.760;2022-07-17T00:39:48;13.00;75.80
69082;DHT22;56184;51.986;5.760;2022-07-17T00:42:15;13.00;77.90
69082;DHT22;56184;51.986;5.760;2022-07-17T00:44:42;12.90;77.90
69082;DHT22;56184;51.986;5.760;2022-07-17T00:47:26;12.80;77.10
69082;DHT22;56184;51.986;5.760;2022-07-17T00:49:52;12.80;77.60
69082;DHT22;56184;51.986;5.760;2022-07-17T00:52:17;12.80;78.10
69082;DHT22;56184;51.986;5.760;2022-07-17T00:54:45;12.70;78.80
69082;DHT22;56184;51.986;5.760;2022-07-17T00:57:14;12.70;77.10
69082;DHT22;56184;51.986;5.760;2022-07-17T00:59:40;12.70;80.00
69082;DHT22;56184;51.986;5.760;2022-07-17T01:02:10;12.60;80.20
69082;DHT22;56184;51.986;5.760;2022-07-17T01:04:37;12.60;82.00
69082;DHT22;56184;51.986;5.760;2022-07-17T01:07:04;12.50;80.90
69082;DHT22;56184;51.986;5.760;2022-07-17T01:09:31;12.50;79.80
69082;DHT22;56184;51.986;5.760;2022-07-17T01:11:57;12.50;79.30
69082;DHT22;56184;51.986;5.760;2022-07-17T01:14:24;12.40;79.20
69082;DHT22;56184;51.986;5.760;2022-07-17T01:16:54;12.40;79.50
69082;DHT22;56184;51.986;5.760;2022-07-17T01:19:21;12.40;79.80
69082;DHT22;56184;51.986;5.760;2022-07-17T01:21:48;12.30;80.60
69082;DHT22;56184;51.986;5.760;2022-07-17T01:24:15;12.30;79.60
69082;DHT22;56184;51.986;5.760;2022-07-17T01:26:42;12.20;79.20
69082;DHT22;56184;51.986;5.760;2022-07-17T01:29:09;12.20;80.80
69082;DHT22;56184;51.986;5.760;2022-07-17T01:31:35;12.20;81.50
69082;DHT22;56184;51.986;5.760;2022-07-17T01:34:02;12.10;81.70
69082;DHT22;56184;51.986;5.760;2022-07-17T01:36:29;12.00;82.10
69082;DHT22;56184;51.986;5.760;2022-07-17T01:38:54;12.00;81.90
69082;DHT22;56184;51.986;5.760;2022-07-17T01:41:22;11.90;82.10
69082;DHT22;56184;51.986;5.760;2022-07-17T01:43:47;11.90;80.10
69082;DHT22;56184;51.986;5.760;2022-07-17T01:46:13;11.90;80.70
69082;DHT22;56184;51.986;5.760;2022-07-17T01:48:38;11.90;81.90
69082;DHT22;56184;51.986;5.760;2022-07-17T01:51:04;11.90;81.00
69082;DHT22;56184;51.986;5.760;2022-07-17T01:53:30;11.80;82.20
69082;DHT22;56184;51.986;5.760;2022-07-17T01:55:55;11.80;83.40
69082;DHT22;56184;51.986;5.760;2022-07-17T01:58:21;11.70;83.00
69082;DHT22;56184;51.986;5.760;2022-07-17T02:00:46;11.70;83.70
69082;DHT22;56184;51.986;5.760;2022-07-17T02:03:12;11.60;83.50
69082;DHT22;56184;51.986;5.760;2022-07-17T02:05:37;11.60;84.40
69082;DHT22;56184;51.986;5.760;2022-07-17T02:08:03;11.60;82.60
69082;DHT22;56184;51.986;5.760;2022-07-17T02:10:29;11.60;83.10
69082;DHT22;56184;51.986;5.760;2022-07-17T02:12:54;11.60;85.40
69082;DHT22;56184;51.986;5.760;2022-07-17T02:15:20;11.50;84.80
69082;DHT22;56184;51.986;5.760;2022-07-17T02:17:46;11.40;85.40
69082;DHT22;56184;51.986;5.760;2022-07-17T02:20:12;11.40;85.00
69082;DHT22;56184;51.986;5.760;2022-07-17T02:22:38;11.40;85.20
69082;DHT22;56184;51.986;5.760;2022-07-17T02:25:04;11.40;84.70
69082;DHT22;56184;51.986;5.760;2022-07-17T02:27:33;11.40;86.30
69082;DHT22;56184;51.986;5.760;2022-07-17T02:30:04;11.30;83.30
69082;DHT22;56184;51.986;5.760;2022-07-17T02:32:30;11.40;83.40
69082;DHT22;56184;51.986;5.760;2022-07-17T02:34:55;11.30;85.60
69082;DHT22;56184;51.986;5.760;2022-07-17T02:37:21;11.20;86.30
69082;DHT22;56184;51.986;5.760;2022-07-17T02:39:46;11.20;85.10
69082;DHT22;56184;51.986;5.760;2022-07-17T02:42:22;11.20;85.90
69082;DHT22;56184;51.986;5.760;2022-07-17T02:44:48;11.20;84.10
69082;DHT22;56184;51.986;5.760;2022-07-17T02:47:25;11.10;84.60
69082;DHT22;56184;51.986;5.760;2022-07-17T02:49:51;11.10;86.10
69082;DHT22;56184;51.986;5.760;2022-07-17T02:52:18;11.00;85.70
69082;DHT22;56184;51.986;5.760;2022-07-17T02:54:43;10.90;85.70
69082;DHT22;56184;51.986;5.760;2022-07-17T02:57:09;10.90;85.00
69082;DHT22;56184;51.986;5.760;2022-07-17T02:59:35;10.90;86.10
69082;DHT22;56184;51.986;5.760;2022-07-17T03:02:00;10.90;83.70
69082;DHT22;56184;51.986;5.760;2022-07-17T03:04:26;10.90;85.10
69082;DHT22;56184;51.986;5.760;2022-07-17T03:06:51;10.80;85.20
69082;DHT22;56184;51.986;5.760;2022-07-17T03:09:17;10.80;84.20
69082;DHT22;56184;51.986;5.760;2022-07-17T03:11:42;10.80;84.70
69082;DHT22;56184;51.986;5.760;2022-07-17T03:14:09;10.70;85.70
69082;DHT22;56184;51.986;5.760;2022-07-17T03:16:34;10.70;85.30
69082;DHT22;56184;51.986;5.760;2022-07-17T03:19:00;10.70;85.30
69082;DHT22;56184;51.986;5.760;2022-07-17T03:21:26;10.60;85.80
69082;DHT22;56184;51.986;5.760;2022-07-17T03:23:51;10.60;85.40
69082;DHT22;56184;51.986;5.760;2022-07-17T03:26:17;10.60;85.70
69082;DHT22;56184;51.986;5.760;2022-07-17T03:28:42;10.50;86.90
69082;DHT22;56184;51.986;5.760;2022-07-17T03:31:08;10.50;86.90
69082;DHT22;56184;51.986;5.760;2022-07-17T03:33:33;10.50;86.40
69082;DHT22;56184;51.986;5.760;2022-07-17T03:35:59;10.50;87.60
69082;DHT22;56184;51.986;5.760;2022-07-17T03:38:24;10.40;87.30
69082;DHT22;56184;51.986;5.760;2022-07-17T03:40:52;10.40;88.00
69082;DHT22;56184;51.986;5.760;2022-07-17T03:43:19;10.40;88.70
69082;DHT22;56184;51.986;5.760;2022-07-17T03:45:45;10.40;89.30
69082;DHT22;56184;51.986;5.760;2022-07-17T03:48:11;10.40;89.00
69082;DHT22;56184;51.986;5.760;2022-07-17T03:50:36;10.40;89.60
69082;DHT22;56184;51.986;5.760;2022-07-17T03:53:02;10.40;89.40
69082;DHT22;56184;51.986;5.760;2022-07-17T03:55:28;10.40;88.80
69082;DHT22;56184;51.986;5.760;2022-07-17T03:57:54;10.40;87.60
69082;DHT22;56184;51.986;5.760;2022-07-17T04:00:19;10.30;87.30
69082;DHT22;56184;51.986;5.760;2022-07-17T04:02:45;10.40;87.10
69082;DHT22;56184;51.986;5.760;2022-07-17T04:05:11;10.30;87.00
69082;DHT22;56184;51.986;5.760;2022-07-17T04:07:41;10.30;88.00
69082;DHT22;56184;51.986;5.760;2022-07-17T04:10:08;10.30;87.50
69082;DHT22;56184;51.986;5.760;2022-07-17T04:12:35;10.30;88.10
69082;DHT22;56184;51.986;5.760;2022-07-17T04:15:00;10.30;87.60
69082;DHT22;56184;51.986;5.760;2022-07-17T04:17:26;10.40;87.10
69082;DHT22;56184;51.986;5.760;2022-07-17T04:19:52;10.40;87.30
69082;DHT22;56184;51.986;5.760;2022-07-17T04:22:18;10.40;87.40
69082;DHT22;56184;51.986;5.760;2022-07-17T04:24:45;10.40;87.20
69082;DHT22;56184;51.986;5.760;2022-07-17T04:27:11;10.40;88.30
69082;DHT22;56184;51.986;5.760;2022-07-17T04:29:36;10.40;89.20
69082;DHT22;56184;51.986;5.760;2022-07-17T04:32:03;10.40;89.50
69082;DHT22;56184;51.986;5.760;2022-07-17T04:34:29;10.40;89.80
69082;DHT22;56184;51.986;5.760;2022-07-17T04:36:54;10.30;90.00
69082;DHT22;56184;51.986;5.760;2022-07-17T04:39:20;10.40;90.20
69082;DHT22;56184;51.986;5.760;2022-07-17T04:41:47;10.40;90.20
69082;DHT22;56184;51.986;5.760;2022-07-17T04:44:12;10.40;89.50
69082;DHT22;56184;51.986;5.760;2022-07-17T04:46:38;10.50;89.80
69082;DHT22;56184;51.986;5.760;2022-07-17T04:49:03;10.50;90.00
69082;DHT22;56184;51.986;5.760;2022-07-17T04:51:29;10.50;90.40
69082;DHT22;56184;51.986;5.760;2022-07-17T04:53:55;10.50;90.40
69082;DHT22;56184;51.986;5.760;2022-07-17T04:56:20;10.50;90.20
69082;DHT22;56184;51.986;5.760;2022-07-17T04:58:46;10.50;90.20
69082;DHT22;56184;51.986;5.760;2022-07-17T05:01:11;10.60;90.60
69082;DHT22;56184;51.986;5.760;2022-07-17T05:03:37;10.60;90.50
69082;DHT22;56184;51.986;5.760;2022-07-17T05:06:03;10.60;90.80
69082;DHT22;56184;51.986;5.760;2022-07-17T05:08:29;10.60;90.90
69082;DHT22;56184;51.986;5.760;2022-07-17T05:10:55;10.70;91.20
69082;DHT22;56184;51.986;5.760;2022-07-17T05:13:21;10.70;91.20
69082;DHT22;56184;51.986;5.760;2022-07-17T05:15:46;10.70;90.80
69082;DHT22;56184;51.986;5.760;2022-07-17T05:18:12;10.80;91.40
69082;DHT22;56184;51.986;5.760;2022-07-17T05:20:39;10.80;91.40
69082;DHT22;56184;51.986;5.760;2022-07-17T05:23:05;10.80;91.40
69082;DHT22;56184;51.986;5.760;2022-07-17T05:25:31;10.90;91.40
69082;DHT22;56184;51.986;5.760;2022-07-17T05:27:57;10.90;91.50
69082;DHT22;56184;51.986;5.760;2022-07-17T05:30:23;10.90;91.90
69082;DHT22;56184;51.986;5.760;2022-07-17T05:32:48;11.00;92.00
69082;DHT22;56184;51.986;5.760;2022-07-17T05:35:14;11.10;92.10
69082;DHT22;56184;51.986;5.760;2022-07-17T05:37:40;11.20;92.20
69082;DHT22;56184;51.986;5.760;2022-07-17T05:40:06;11.30;92.30
69082;DHT22;56184;51.986;5.760;2022-07-17T05:42:32;11.30;92.10
69082;DHT22;56184;51.986;5.760;2022-07-17T05:44:58;11.40;92.30
69082;DHT22;56184;51.986;5.760;2022-07-17T05:47:25;11.60;92.50
69082;DHT22;56184;51.986;5.760;2022-07-17T05:49:50;11.70;92.70
69082;DHT22;56184;51.986;5.760;2022-07-17T05:52:16;11.80;92.70
69082;DHT22;56184;51.986;5.760;2022-07-17T05:54:42;11.90;92.60
69082;DHT22;56184;51.986;5.760;2022-07-17T05:57:08;12.00;92.20
69082;DHT22;56184;51.986;5.760;2022-07-17T05:59:34;12.20;91.90
69082;DHT22;56184;51.986;5.760;2022-07-17T06:02:00;12.30;92.60
69082;DHT22;56184;51.986;5.760;2022-07-17T06:04:26;12.40;92.70
69082;DHT22;56184;51.986;5.760;2022-07-17T06:06:51;12.60;93.10
69082;DHT22;56184;51.986;5.760;2022-07-17T06:09:17;12.70;92.20
69082;DHT22;56184;51.986;5.760;2022-07-17T06:11:43;12.80;91.50
69082;DHT22;56184;51.986;5.760;2022-07-17T06:14:08;12.90;92.00
69082;DHT22;56184;51.986;5.760;2022-07-17T06:16:34;13.10;91.90
69082;DHT22;56184;51.986;5.760;2022-07-17T06:18:59;13.30;91.80
69082;DHT22;56184;51.986;5.760;2022-07-17T06:21:25;13.40;92.10
69082;DHT22;56184;51.986;5.760;2022-07-17T06:23:51;13.60;91.70
69082;DHT22;56184;51.986;5.760;2022-07-17T06:26:16;13.70;91.20
69082;DHT22;56184;51.986;5.760;2022-07-17T06:28:42;13.80;91.00
69082;DHT22;56184;51.986;5.760;2022-07-17T06:31:07;13.90;90.60
69082;DHT22;56184;51.986;5.760;2022-07-17T06:33:33;14.10;90.50
69082;DHT22;56184;51.986;5.760;2022-07-17T06:35:59;14.30;90.00
69082;DHT22;56184;51.986;5.760;2022-07-17T06:38:24;14.50;88.60
69082;DHT22;56184;51.986;5.760;2022-07-17T06:40:50;14.60;88.10
69082;DHT22;56184;51.986;5.760;2022-07-17T06:43:16;14.70;87.20
69082;DHT22;56184;51.986;5.760;2022-07-17T06:45:41;14.90;85.20
69082;DHT22;56184;51.986;5.760;2022-07-17T06:48:13;15.00;83.80
69082;DHT22;56184;51.986;5.760;2022-07-17T06:50:38;15.10;82.20
69082;DHT22;56184;51.986;5.760;2022-07-17T06:53:04;15.20;82.50
69082;DHT22;56184;51.986;5.760;2022-07-17T06:55:29;15.30;81.50
69082;DHT22;56184;51.986;5.760;2022-07-17T06:57:55;15.30;80.80
69082;DHT22;56184;51.986;5.760;2022-07-17T07:00:21;15.40;80.20
69082;DHT22;56184;51.986;5.760;2022-07-17T07:02:46;15.50;80.70
69082;DHT22;56184;51.986;5.760;2022-07-17T07:05:12;15.60;80.40
69082;DHT22;56184;51.986;5.760;2022-07-17T07:07:38;15.70;78.00
69082;DHT22;56184;51.986;5.760;2022-07-17T07:10:03;15.80;80.20
69082;DHT22;56184;51.986;5.760;2022-07-17T07:12:29;15.90;77.50
69082;DHT22;56184;51.986;5.760;2022-07-17T07:14:55;16.00;76.90
69082;DHT22;56184;51.986;5.760;2022-07-17T07:17:21;16.10;77.00
69082;DHT22;56184;51.986;5.760;2022-07-17T07:19:47;16.10;76.30
69082;DHT22;56184;51.986;5.760;2022-07-17T07:22:12;16.20;75.20
69082;DHT22;56184;51.986;5.760;2022-07-17T07:24:38;16.30;73.50
69082;DHT22;56184;51.986;5.760;2022-07-17T07:27:03;16.40;74.10
69082;DHT22;56184;51.986;5.760;2022-07-17T07:29:29;16.50;73.80
69082;DHT22;56184;51.986;5.760;2022-07-17T07:31:55;16.60;72.30
69082;DHT22;56184;51.986;5.760;2022-07-17T07:34:21;16.70;72.80
69082;DHT22;56184;51.986;5.760;2022-07-17T07:36:46;16.70;71.20
69082;DHT22;56184;51.986;5.760;2022-07-17T07:39:12;16.80;70.50
69082;DHT22;56184;51.986;5.760;2022-07-17T07:41:37;16.90;69.60
69082;DHT22;56184;51.986;5.760;2022-07-17T07:44:09;16.90;69.50
69082;DHT22;56184;51.986;5.760;2022-07-17T07:46:35;17.00;69.40
69082;DHT22;56184;51.986;5.760;2022-07-17T07:49:01;17.10;70.30
69082;DHT22;56184;51.986;5.760;2022-07-17T07:51:29;17.20;70.70
69082;DHT22;56184;51.986;5.760;2022-07-17T07:53:55;17.30;70.00
69082;DHT22;56184;51.986;5.760;2022-07-17T07:56:20;17.30;69.40
69082;DHT22;56184;51.986;5.760;2022-07-17T07:58:46;17.40;68.40
69082;DHT22;56184;51.986;5.760;2022-07-17T08:01:11;17.50;68.70
69082;DHT22;56184;51.986;5.760;2022-07-17T08:03:37;17.60;68.30
69082;DHT22;56184;51.986;5.760;2022-07-17T08:06:03;17.70;67.20
69082;DHT22;56184;51.986;5.760;2022-07-17T08:08:29;17.70;67.70
69082;DHT22;56184;51.986;5.760;2022-07-17T08:10:54;17.80;65.30
69082;DHT22;56184;51.986;5.760;2022-07-17T08:13:20;17.80;65.40
69082;DHT22;56184;51.986;5.760;2022-07-17T08:15:45;17.90;64.40
69082;DHT22;56184;51.986;5.760;2022-07-17T08:18:11;17.90;63.90
69082;DHT22;56184;51.986;5.760;2022-07-17T08:20:38;17.90;63.40
69082;DHT22;56184;51.986;5.760;2022-07-17T08:23:04;18.00;64.20
69082;DHT22;56184;51.986;5.760;2022-07-17T08:25:30;18.10;62.70
69082;DHT22;56184;51.986;5.760;2022-07-17T08:27:55;18.10;62.40
69082;DHT22;56184;51.986;5.760;2022-07-17T08:30:27;18.10;62.80
69082;DHT22;56184;51.986;5.760;2022-07-17T08:32:53;18.20;62.50
69082;DHT22;56184;51.986;5.760;2022-07-17T08:35:18;18.20;62.10
69082;DHT22;56184;51.986;5.760;2022-07-17T08:37:49;18.20;62.30
69082;DHT22;56184;51.986;5.760;2022-07-17T08:40:17;18.30;62.00
69082;DHT22;56184;51.986;5.760;2022-07-17T08:42:43;18.30;63.70
69082;DHT22;56184;51.986;5.760;2022-07-17T08:45:10;18.50;63.60
69082;DHT22;56184;51.986;5.760;2022-07-17T08:47:37;18.50;62.60
69082;DHT22;56184;51.986;5.760;2022-07-17T08:50:03;18.60;62.20
69082;DHT22;56184;51.986;5.760;2022-07-17T08:52:29;18.70;61.10
69082;DHT22;56184;51.986;5.760;2022-07-17T08:54:55;18.70;58.80
69082;DHT22;56184;51.986;5.760;2022-07-17T08:57:20;18.70;58.60
69082;DHT22;56184;51.986;5.760;2022-07-17T08:59:49;18.80;57.40
69082;DHT22;56184;51.986;5.760;2022-07-17T09:02:14;18.90;57.60
69082;DHT22;56184;51.986;5.760;2022-07-17T09:04:40;18.80;57.60
69082;DHT22;56184;51.986;5.760;2022-07-17T09:07:06;18.90;59.50
69082;DHT22;56184;51.986;5.760;2022-07-17T09:09:32;19.00;59.80
69082;DHT22;56184;51.986;5.760;2022-07-17T09:12:00;19.10;58.00
69082;DHT22;56184;51.986;5.760;2022-07-17T09:14:37;19.20;57.30
69082;DHT22;56184;51.986;5.760;2022-07-17T09:17:05;19.30;56.10
69082;DHT22;56184;51.986;5.760;2022-07-17T09:19:42;19.30;56.10
69082;DHT22;56184;51.986;5.760;2022-07-17T09:22:22;19.30;56.20
69082;DHT22;56184;51.986;5.760;2022-07-17T09:24:56;19.40;56.10
69082;DHT22;56184;51.986;5.760;2022-07-17T09:29:54;19.50;56.70
69082;DHT22;56184;51.986;5.760;2022-07-17T09:32:21;19.60;57.10
69082;DHT22;56184;51.986;5.760;2022-07-17T09:34:48;19.70;55.10
69082;DHT22;56184;51.986;5.760;2022-07-17T09:37:17;19.70;54.90
69082;DHT22;56184;51.986;5.760;2022-07-17T09:39:43;19.70;55.10
69082;DHT22;56184;51.986;5.760;2022-07-17T09:42:10;19.80;56.00
69082;DHT22;56184;51.986;5.760;2022-07-17T09:47:26;19.90;55.60
69082;DHT22;56184;51.986;5.760;2022-07-17T09:50:08;20.10;55.60
69082;DHT22;56184;51.986;5.760;2022-07-17T09:52:36;20.30;56.20
69082;DHT22;56184;51.986;5.760;2022-07-17T09:55:05;20.40;54.70
69082;DHT22;56184;51.986;5.760;2022-07-17T09:57:33;20.50;54.40
69082;DHT22;56184;51.986;5.760;2022-07-17T10:00:06;20.50;54.00
69082;DHT22;56184;51.986;5.760;2022-07-17T10:02:40;20.60;53.80
69082;DHT22;56184;51.986;5.760;2022-07-17T10:05:12;20.80;54.20
69082;DHT22;56184;51.986;5.760;2022-07-17T10:07:40;20.80;53.30
69082;DHT22;56184;51.986;5.760;2022-07-17T10:10:08;20.90;53.10
69082;DHT22;56184;51.986;5.760;2022-07-17T10:12:36;21.00;51.90
69082;DHT22;56184;51.986;5.760;2022-07-17T10:15:03;21.10;53.40
69082;DHT22;56184;51.986;5.760;2022-07-17T10:17:29;21.20;50.30
69082;DHT22;56184;51.986;5.760;2022-07-17T10:19:56;21.20;50.50
69082;DHT22;56184;51.986;5.760;2022-07-17T10:22:23;21.30;51.20
69082;DHT22;56184;51.986;5.760;2022-07-17T10:27:20;21.60;48.80
69082;DHT22;56184;51.986;5.760;2022-07-17T10:29:47;21.70;49.90
69082;DHT22;56184;51.986;5.760;2022-07-17T10:32:18;21.90;49.20
69082;DHT22;56184;51.986;5.760;2022-07-17T10:34:52;22.00;49.60
69082;DHT22;56184;51.986;5.760;2022-07-17T10:37:40;22.10;48.60
69082;DHT22;56184;51.986;5.760;2022-07-17T10:40:23;22.30;48.30
69082;DHT22;56184;51.986;5.760;2022-07-17T10:42:59;22.40;48.50
69082;DHT22;56184;51.986;5.760;2022-07-17T10:45:42;22.80;48.70
69082;DHT22;56184;51.986;5.760;2022-07-17T10:48:22;23.20;46.80
69082;DHT22;56184;51.986;5.760;2022-07-17T10:50:55;23.80;44.50
69082;DHT22;56184;51.986;5.760;2022-07-17T10:53:32;24.30;42.70
69082;DHT22;56184;51.986;5.760;2022-07-17T10:56:03;24.70;42.10
69082;DHT22;56184;51.986;5.760;2022-07-17T10:58:31;24.90;41.30
69082;DHT22;56184;51.986;5.760;2022-07-17T11:01:10;25.40;41.40
69082;DHT22;56184;51.986;5.760;2022-07-17T11:06:14;26.30;42.10
69082;DHT22;56184;51.986;5.760;2022-07-17T11:08:49;26.20;39.40
69082;DHT22;56184;51.986;5.760;2022-07-17T11:11:16;26.30;41.10
69082;DHT22;56184;51.986;5.760;2022-07-17T11:13:41;27.00;42.10
69082;DHT22;56184;51.986;5.760;2022-07-17T11:16:07;27.60;38.60
69082;DHT22;56184;51.986;5.760;2022-07-17T11:18:34;28.40;39.50
69082;DHT22;56184;51.986;5.760;2022-07-17T11:21:01;29.20;40.40
69082;DHT22;56184;51.986;5.760;2022-07-17T11:23:32;29.40;39.90
69082;DHT22;56184;51.986;5.760;2022-07-17T11:26:08;30.00;38.80
69082;DHT22;56184;51.986;5.760;2022-07-17T11:28:40;30.20;34.80
69082;DHT22;56184;51.986;5.760;2022-07-17T11:31:24;30.40;35.80
69082;DHT22;56184;51.986;5.760;2022-07-17T11:34:10;30.80;37.10
69082;DHT22;56184;51.986;5.760;2022-07-17T11:36:42;31.30;35.50
69082;DHT22;56184;51.986;5.760;2022-07-17T11:39:13;31.70;38.60
69082;DHT22;56184;51.986;5.760;2022-07-17T11:41:45;32.20;31.10
69082;DHT22;56184;51.986;5.760;2022-07-17T11:44:17;32.50;35.60
69082;DHT22;56184;51.986;5.760;2022-07-17T11:46:44;33.50;36.70
69082;DHT22;56184;51.986;5.760;2022-07-17T11:49:11;34.00;32.70
69082;DHT22;56184;51.986;5.760;2022-07-17T11:51:42;34.30;35.40
69082;DHT22;56184;51.986;5.760;2022-07-17T11:54:11;34.70;32.20
69082;DHT22;56184;51.986;5.760;2022-07-17T11:56:38;35.10;36.70
69082;DHT22;56184;51.986;5.760;2022-07-17T11:59:04;35.60;34.60
69082;DHT22;56184;51.986;5.760;2022-07-17T12:01:42;36.10;31.30
69082;DHT22;56184;51.986;5.760;2022-07-17T12:04:13;36.30;35.40
69082;DHT22;56184;51.986;5.760;2022-07-17T12:06:45;37.00;29.50
69082;DHT22;56184;51.986;5.760;2022-07-17T12:09:11;37.30;35.20
69082;DHT22;56184;51.986;5.760;2022-07-17T12:11:49;37.20;30.90
69082;DHT22;56184;51.986;5.760;2022-07-17T12:14:17;37.50;31.40
69082;DHT22;56184;51.986;5.760;2022-07-17T12:16:43;38.20;34.90
69082;DHT22;56184;51.986;5.760;2022-07-17T12:19:22;38.20;30.70
69082;DHT22;56184;51.986;5.760;2022-07-17T12:22:00;38.70;34.30
69082;DHT22;56184;51.986;5.760;2022-07-17T12:24:36;38.90;31.80
69082;DHT22;56184;51.986;5.760;2022-07-17T12:29:30;39.00;28.00
69082;DHT22;56184;51.986;5.760;2022-07-17T12:34:30;39.20;27.90
69082;DHT22;56184;51.986;5.760;2022-07-17T12:36:56;39.20;29.50
69082;DHT22;56184;51.986;5.760;2022-07-17T12:39:21;39.50;27.80
69082;DHT22;56184;51.986;5.760;2022-07-17T12:41:48;39.30;27.80
69082;DHT22;56184;51.986;5.760;2022-07-17T12:44:15;39.60;27.40
69082;DHT22;56184;51.986;5.760;2022-07-17T12:46:40;40.10;29.80
69082;DHT22;56184;51.986;5.760;2022-07-17T12:49:09;40.40;26.80
69082;DHT22;56184;51.986;5.760;2022-07-17T12:51:34;40.60;27.60
69082;DHT22;56184;51.986;5.760;2022-07-17T12:54:00;40.90;28.50
69082;DHT22;56184;51.986;5.760;2022-07-17T12:56:26;41.50;29.30
69082;DHT22;56184;51.986;5.760;2022-07-17T12:58:53;42.10;28.20
69082;DHT22;56184;51.986;5.760;2022-07-17T13:01:19;42.10;28.20
69082;DHT22;56184;51.986;5.760;2022-07-17T13:03:44;42.30;28.10
69082;DHT22;56184;51.986;5.760;2022-07-17T13:06:10;42.80;29.00
69082;DHT22;56184;51.986;5.760;2022-07-17T13:08:36;42.80;27.60
69082;DHT22;56184;51.986;5.760;2022-07-17T13:11:02;42.50;25.60
69082;DHT22;56184;51.986;5.760;2022-07-17T13:13:28;42.40;26.60
69082;DHT22;56184;51.986;5.760;2022-07-17T13:15:55;42.90;27.10
69082;DHT22;56184;51.986;5.760;2022-07-17T13:18:20;43.30;27.20
69082;DHT22;56184;51.986;5.760;2022-07-17T13:20:46;43.50;23.10
69082;DHT22;56184;51.986;5.760;2022-07-17T13:23:12;43.80;26.30
69082;DHT22;56184;51.986;5.760;2022-07-17T13:25:38;44.30;24.60
69082;DHT22;56184;51.986;5.760;2022-07-17T13:28:05;44.00;25.70
69082;DHT22;56184;51.986;5.760;2022-07-17T13:30:30;44.30;23.60
69082;DHT22;56184;51.986;5.760;2022-07-17T13:32:58;44.20;25.20
69082;DHT22;56184;51.986;5.760;2022-07-17T13:35:24;44.20;25.50
69082;DHT22;56184;51.986;5.760;2022-07-17T13:37:49;44.30;25.00
69082;DHT22;56184;51.986;5.760;2022-07-17T13:40:15;43.10;25.40
69082;DHT22;56184;51.986;5.760;2022-07-17T13:42:41;43.20;25.00
69082;DHT22;56184;51.986;5.760;2022-07-17T13:45:07;43.40;25.60
69082;DHT22;56184;51.986;5.760;2022-07-17T13:47:33;44.10;24.00
69082;DHT22;56184;51.986;5.760;2022-07-17T13:49:58;44.60;25.20
69082;DHT22;56184;51.986;5.760;2022-07-17T13:52:24;45.10;23.70
69082;DHT22;56184;51.986;5.760;2022-07-17T13:54:50;45.60;25.20
69082;DHT22;56184;51.986;5.760;2022-07-17T13:57:15;45.70;24.90
69082;DHT22;56184;51.986;5.760;2022-07-17T13:59:41;45.50;24.20
69082;DHT22;56184;51.986;5.760;2022-07-17T14:02:07;45.60;24.10
69082;DHT22;56184;51.986;5.760;2022-07-17T14:04:33;45.60;24.50
69082;DHT22;56184;51.986;5.760;2022-07-17T14:06:59;45.70;23.60
69082;DHT22;56184;51.986;5.760;2022-07-17T14:09:28;46.10;22.50
69082;DHT22;56184;51.986;5.760;2022-07-17T14:11:54;46.60;23.60
69082;DHT22;56184;51.986;5.760;2022-07-17T14:14:20;46.60;23.10
69082;DHT22;56184;51.986;5.760;2022-07-17T14:16:48;46.50;22.30
69082;DHT22;56184;51.986;5.760;2022-07-17T14:19:14;47.00;22.20
69082;DHT22;56184;51.986;5.760;2022-07-17T14:21:41;45.90;23.50
69082;DHT22;56184;51.986;5.760;2022-07-17T14:24:07;46.40;22.40
69082;DHT22;56184;51.986;5.760;2022-07-17T14:26:35;46.40;22.00
69082;DHT22;56184;51.986;5.760;2022-07-17T14:29:01;47.10;21.50
69082;DHT22;56184;51.986;5.760;2022-07-17T14:31:28;47.20;22.00
69082;DHT22;56184;51.986;5.760;2022-07-17T14:33:53;47.10;21.50
69082;DHT22;56184;51.986;5.760;2022-07-17T14:36:19;46.70;22.60
69082;DHT22;56184;51.986;5.760;2022-07-17T14:38:45;47.00;22.30
69082;DHT22;56184;51.986;5.760;2022-07-17T14:41:11;46.90;21.80
69082;DHT22;56184;51.986;5.760;2022-07-17T14:43:37;47.20;21.70
69082;DHT22;56184;51.986;5.760;2022-07-17T14:46:03;47.70;20.80
69082;DHT22;56184;51.986;5.760;2022-07-17T14:48:30;47.30;21.20
69082;DHT22;56184;51.986;5.760;2022-07-17T14:50:55;46.10;20.20
69082;DHT22;56184;51.986;5.760;2022-07-17T14:53:21;45.80;21.20
69082;DHT22;56184;51.986;5.760;2022-07-17T14:55:47;46.00;21.40
69082;DHT22;56184;51.986;5.760;2022-07-17T14:58:12;46.30;21.10
69082;DHT22;56184;51.986;5.760;2022-07-17T15:00:38;46.60;19.30
69082;DHT22;56184;51.986;5.760;2022-07-17T15:03:04;46.20;20.20
69082;DHT22;56184;51.986;5.760;2022-07-17T15:05:31;46.00;21.00
69082;DHT22;56184;51.986;5.760;2022-07-17T15:07:57;46.00;20.10
69082;DHT22;56184;51.986;5.760;2022-07-17T15:10:23;46.30;20.80
69082;DHT22;56184;51.986;5.760;2022-07-17T15:12:48;46.40;19.80
69082;DHT22;56184;51.986;5.760;2022-07-17T15:15:14;46.10;19.30
69082;DHT22;56184;51.986;5.760;2022-07-17T15:17:40;45.50;19.70
69082;DHT22;56184;51.986;5.760;2022-07-17T15:20:06;45.80;19.50
69082;DHT22;56184;51.986;5.760;2022-07-17T15:22:32;45.10;21.10
69082;DHT22;56184;51.986;5.760;2022-07-17T15:24:57;44.60;20.50
69082;DHT22;56184;51.986;5.760;2022-07-17T15:27:23;44.50;20.40
69082;DHT22;56184;51.986;5.760;2022-07-17T15:29:48;45.10;20.40
69082;DHT22;56184;51.986;5.760;2022-07-17T15:32:14;45.10;19.90
69082;DHT22;56184;51.986;5.760;2022-07-17T15:34:39;45.00;21.00
69082;DHT22;56184;51.986;5.760;2022-07-17T15:37:05;45.30;20.10
69082;DHT22;56184;51.986;5.760;2022-07-17T15:39:31;44.20;19.50
69082;DHT22;56184;51.986;5.760;2022-07-17T15:41:56;43.00;20.70
69082;DHT22;56184;51.986;5.760;2022-07-17T15:44:22;42.20;20.50